sensor_id;sensor_type;location;lat;lon;timestamp;pressure;altitude;pressure_sealevel;temperature
15079;BMP180;6932;51.438;5.470;2022-12-07T00:01:16;101420.00;;;11.00
15079;BMP180;6932;51.438;5.470;2022-12-07T00:03:46;101419.00;;;10.90
15079;BMP180;6932;51.438;5.470;2022-12-07T00:06:15;101417.00;;;10.90
15079;BMP180;6932;51.438;5.470;2022-12-07T00:08:41;101420.00;;;10.90
15079;BMP180;6932;51.438;5.470;2022-12-07T00:11:10;101419.00;;;10.90
15079;BMP180;6932;51.438;5.470;2022-12-07T00:13:37;101414.00;;;10.90
15079;BMP180;6932;51.438;5.470;2022-12-07T00:16:15;101411.00;;;10.90
15079;BMP180;6932;51.438;5.470;2022-12-07T00:18:43;101407.00;;;10.90
15079;BMP180;6932;51.438;5.470;2022-12-07T00:21:17;101404.00;;;10.80
15079;BMP180;6932;51.438;5.470;2022-12-07T00:23:46;101406.00;;;10.80
15079;BMP180;6932;51.438;5.470;2022-12-07T00:26:16;101409.00;;;10.80
15079;BMP180;6932;51.438;5.470;2022-12-07T00:28:48;101402.00;;;10.80
15079;BMP180;6932;51.438;5.470;2022-12-07T00:31:16;101404.00;;;10.80
15079;BMP180;6932;51.438;5.470;2022-12-07T00:33:43;101403.00;;;10.70
15079;BMP180;6932;51.438;5.470;2022-12-07T00:36:13;101392.00;;;10.70
15079;BMP180;6932;51.438;5.470;2022-12-07T00:38:41;101396.00;;;10.70
15079;BMP180;6932;51.438;5.470;2022-12-07T00:41:17;101396.00;;;10.70
15079;BMP180;6932;51.438;5.470;2022-12-07T00:43:45;101394.00;;;10.60
15079;BMP180;6932;51.438;5.470;2022-12-07T00:46:12;101389.00;;;10.60
15079;BMP180;6932;51.438;5.470;2022-12-07T00:48:38;101394.00;;;10.60
15079;BMP180;6932;51.438;5.470;2022-12-07T00:51:05;101390.00;;;10.60
15079;BMP180;6932;51.438;5.470;2022-12-07T00:53:34;101389.00;;;10.60
15079;BMP180;6932;51.438;5.470;2022-12-07T00:56:17;101397.00;;;10.60
15079;BMP180;6932;51.438;5.470;2022-12-07T00:58:43;101389.00;;;10.50
15079;BMP180;6932;51.438;5.470;2022-12-07T01:01:10;101388.00;;;10.50
15079;BMP180;6932;51.438;5.470;2022-12-07T01:03:37;101391.00;;;10.50
15079;BMP180;6932;51.438;5.470;2022-12-07T01:06:03;101384.00;;;10.50
15079;BMP180;6932;51.438;5.470;2022-12-07T01:08:30;101386.00;;;10.50
15079;BMP180;6932;51.438;5.470;2022-12-07T01:11:06;101393.00;;;10.50
15079;BMP180;6932;51.438;5.470;2022-12-07T01:13:34;101393.00;;;10.40
15079;BMP180;6932;51.438;5.470;2022-12-07T01:16:02;101393.00;;;10.40
15079;BMP180;6932;51.438;5.470;2022-12-07T01:18:31;101384.00;;;10.40
15079;BMP180;6932;51.438;5.470;2022-12-07T01:21:11;101386.00;;;10.40
15079;BMP180;6932;51.438;5.470;2022-12-07T01:23:37;101396.00;;;10.40
15079;BMP180;6932;51.438;5.470;2022-12-07T01:26:10;101394.00;;;10.40
15079;BMP180;6932;51.438;5.470;2022-12-07T01:28:36;101397.00;;;10.40
15079;BMP180;6932;51.438;5.470;2022-12-07T01:31:10;101394.00;;;10.40
15079;BMP180;6932;51.438;5.470;2022-12-07T01:34:24;101395.00;;;10.30
15079;BMP180;6932;51.438;5.470;2022-12-07T01:37:27;101391.00;;;10.30
15079;BMP180;6932;51.438;5.470;2022-12-07T01:39:53;101396.00;;;10.30
15079;BMP180;6932;51.438;5.470;2022-12-07T01:42:19;101406.00;;;10.30
15079;BMP180;6932;51.438;5.470;2022-12-07T01:45:37;101399.00;;;10.30
15079;BMP180;6932;51.438;5.470;2022-12-07T01:48:05;101403.00;;;10.20
15079;BMP180;6932;51.438;5.470;2022-12-07T01:50:32;101401.00;;;10.30
15079;BMP180;6932;51.438;5.470;2022-12-07T01:53:03;101394.00;;;10.30
15079;BMP180;6932;51.438;5.470;2022-12-07T01:55:30;101399.00;;;10.30
15079;BMP180;6932;51.438;5.470;2022-12-07T01:57:57;101388.00;;;10.30
15079;BMP180;6932;51.438;5.470;2022-12-07T02:00:23;101398.00;;;10.30
15079;BMP180;6932;51.438;5.470;2022-12-07T02:03:13;101393.00;;;10.30
15079;BMP180;6932;51.438;5.470;2022-12-07T02:05:43;101392.00;;;10.30
15079;BMP180;6932;51.438;5.470;2022-12-07T02:08:11;101390.00;;;10.30
15079;BMP180;6932;51.438;5.470;2022-12-07T02:10:37;101392.00;;;10.30
15079;BMP180;6932;51.438;5.470;2022-12-07T02:13:59;101387.00;;;10.30
15079;BMP180;6932;51.438;5.470;2022-12-07T02:17:20;101382.00;;;10.30
15079;BMP180;6932;51.438;5.470;2022-12-07T02:20:28;101376.00;;;10.30
15079;BMP180;6932;51.438;5.470;2022-12-07T02:23:28;101376.00;;;10.30
15079;BMP180;6932;51.438;5.470;2022-12-07T02:26:22;101382.00;;;10.30
15079;BMP180;6932;51.438;5.470;2022-12-07T02:29:20;101387.00;;;10.30
15079;BMP180;6932;51.438;5.470;2022-12-07T02:32:10;101383.00;;;10.30
15079;BMP180;6932;51.438;5.470;2022-12-07T02:35:04;101385.00;;;10.30
15079;BMP180;6932;51.438;5.470;2022-12-07T02:40:41;101380.00;;;10.30
15079;BMP180;6932;51.438;5.470;2022-12-07T02:43:24;101375.00;;;10.30
15079;BMP180;6932;51.438;5.470;2022-12-07T02:46:09;101377.00;;;10.30
15079;BMP180;6932;51.438;5.470;2022-12-07T02:48:38;101373.00;;;10.30
15079;BMP180;6932;51.438;5.470;2022-12-07T02:51:05;101371.00;;;10.30
15079;BMP180;6932;51.438;5.470;2022-12-07T02:53:38;101376.00;;;10.30
15079;BMP180;6932;51.438;5.470;2022-12-07T02:56:34;101377.00;;;10.30
15079;BMP180;6932;51.438;5.470;2022-12-07T02:59:28;101369.00;;;10.30
15079;BMP180;6932;51.438;5.470;2022-12-07T03:02:31;101368.00;;;10.30
15079;BMP180;6932;51.438;5.470;2022-12-07T03:05:31;101378.00;;;10.20
15079;BMP180;6932;51.438;5.470;2022-12-07T03:11:34;101375.00;;;10.20
15079;BMP180;6932;51.438;5.470;2022-12-07T03:14:35;101378.00;;;10.20
15079;BMP180;6932;51.438;5.470;2022-12-07T03:17:21;101385.00;;;10.20
15079;BMP180;6932;51.438;5.470;2022-12-07T03:19:54;101385.00;;;10.20
15079;BMP180;6932;51.438;5.470;2022-12-07T03:22:23;101371.00;;;10.20
15079;BMP180;6932;51.438;5.470;2022-12-07T03:24:59;101378.00;;;10.30
15079;BMP180;6932;51.438;5.470;2022-12-07T03:27:32;101382.00;;;10.30
15079;BMP180;6932;51.438;5.470;2022-12-07T03:30:04;101373.00;;;10.30
15079;BMP180;6932;51.438;5.470;2022-12-07T03:32:37;101390.00;;;10.30
15079;BMP180;6932;51.438;5.470;2022-12-07T03:35:22;101377.00;;;10.30
15079;BMP180;6932;51.438;5.470;2022-12-07T03:38:00;101372.00;;;10.30
15079;BMP180;6932;51.438;5.470;2022-12-07T03:40:40;101372.00;;;10.30
15079;BMP180;6932;51.438;5.470;2022-12-07T03:43:08;101359.00;;;10.30
15079;BMP180;6932;51.438;5.470;2022-12-07T03:57:10;101373.00;;;10.30
15079;BMP180;6932;51.438;5.470;2022-12-07T03:59:38;101377.00;;;10.20
15079;BMP180;6932;51.438;5.470;2022-12-07T04:02:07;101375.00;;;10.30
15079;BMP180;6932;51.438;5.470;2022-12-07T04:04:34;101377.00;;;10.30
15079;BMP180;6932;51.438;5.470;2022-12-07T04:07:00;101375.00;;;10.30
15079;BMP180;6932;51.438;5.470;2022-12-07T04:09:26;101370.00;;;10.30
15079;BMP180;6932;51.438;5.470;2022-12-07T04:11:51;101370.00;;;10.30
15079;BMP180;6932;51.438;5.470;2022-12-07T04:14:17;101366.00;;;10.30
15079;BMP180;6932;51.438;5.470;2022-12-07T04:16:57;101372.00;;;10.30
15079;BMP180;6932;51.438;5.470;2022-12-07T04:19:28;101371.00;;;10.30
15079;BMP180;6932;51.438;5.470;2022-12-07T04:21:55;101364.00;;;10.30
15079;BMP180;6932;51.438;5.470;2022-12-07T04:24:21;101371.00;;;10.40
15079;BMP180;6932;51.438;5.470;2022-12-07T04:26:47;101374.00;;;10.40
15079;BMP180;6932;51.438;5.470;2022-12-07T04:29:15;101363.00;;;10.40
15079;BMP180;6932;51.438;5.470;2022-12-07T04:31:41;101372.00;;;10.40
15079;BMP180;6932;51.438;5.470;2022-12-07T04:34:07;101369.00;;;10.40
15079;BMP180;6932;51.438;5.470;2022-12-07T04:36:34;101356.00;;;10.40
15079;BMP180;6932;51.438;5.470;2022-12-07T04:39:00;101352.00;;;10.40
15079;BMP180;6932;51.438;5.470;2022-12-07T04:41:27;101356.00;;;10.40
15079;BMP180;6932;51.438;5.470;2022-12-07T04:44:00;101362.00;;;10.40
15079;BMP180;6932;51.438;5.470;2022-12-07T04:46:28;101342.00;;;10.40
15079;BMP180;6932;51.438;5.470;2022-12-07T04:48:55;101338.00;;;10.40
15079;BMP180;6932;51.438;5.470;2022-12-07T04:51:28;101347.00;;;10.40
15079;BMP180;6932;51.438;5.470;2022-12-07T04:53:55;101347.00;;;10.40
15079;BMP180;6932;51.438;5.470;2022-12-07T04:56:22;101346.00;;;10.50
15079;BMP180;6932;51.438;5.470;2022-12-07T04:58:49;101345.00;;;10.50
15079;BMP180;6932;51.438;5.470;2022-12-07T05:01:16;101352.00;;;10.50
15079;BMP180;6932;51.438;5.470;2022-12-07T05:03:42;101351.00;;;10.50
15079;BMP180;6932;51.438;5.470;2022-12-07T05:06:09;101342.00;;;10.50
15079;BMP180;6932;51.438;5.470;2022-12-07T05:08:36;101352.00;;;10.50
15079;BMP180;6932;51.438;5.470;2022-12-07T05:11:03;101359.00;;;10.50
15079;BMP180;6932;51.438;5.470;2022-12-07T05:13:31;101356.00;;;10.50
15079;BMP180;6932;51.438;5.470;2022-12-07T05:15:57;101347.00;;;10.50
15079;BMP180;6932;51.438;5.470;2022-12-07T05:18:23;101344.00;;;10.50
15079;BMP180;6932;51.438;5.470;2022-12-07T05:20:49;101348.00;;;10.50
15079;BMP180;6932;51.438;5.470;2022-12-07T05:23:17;101340.00;;;10.50
15079;BMP180;6932;51.438;5.470;2022-12-07T05:25:43;101334.00;;;10.50
15079;BMP180;6932;51.438;5.470;2022-12-07T05:28:10;101338.00;;;10.50
15079;BMP180;6932;51.438;5.470;2022-12-07T05:30:36;101336.00;;;10.50
15079;BMP180;6932;51.438;5.470;2022-12-07T05:33:02;101336.00;;;10.50
15079;BMP180;6932;51.438;5.470;2022-12-07T05:35:28;101341.00;;;10.50
15079;BMP180;6932;51.438;5.470;2022-12-07T05:37:55;101330.00;;;10.60
15079;BMP180;6932;51.438;5.470;2022-12-07T05:40:22;101346.00;;;10.60
15079;BMP180;6932;51.438;5.470;2022-12-07T05:42:48;101330.00;;;10.60
15079;BMP180;6932;51.438;5.470;2022-12-07T05:45:14;101336.00;;;10.60
15079;BMP180;6932;51.438;5.470;2022-12-07T05:47:40;101331.00;;;10.60
15079;BMP180;6932;51.438;5.470;2022-12-07T05:50:06;101333.00;;;10.60
15079;BMP180;6932;51.438;5.470;2022-12-07T05:52:32;101330.00;;;10.60
15079;BMP180;6932;51.438;5.470;2022-12-07T05:54:58;101328.00;;;10.60
15079;BMP180;6932;51.438;5.470;2022-12-07T05:57:24;101329.00;;;10.60
15079;BMP180;6932;51.438;5.470;2022-12-07T05:59:50;101327.00;;;10.60
15079;BMP180;6932;51.438;5.470;2022-12-07T06:02:16;101323.00;;;10.60
15079;BMP180;6932;51.438;5.470;2022-12-07T06:04:46;101319.00;;;10.50
15079;BMP180;6932;51.438;5.470;2022-12-07T06:07:15;101325.00;;;10.50
15079;BMP180;6932;51.438;5.470;2022-12-07T06:09:41;101332.00;;;10.50
15079;BMP180;6932;51.438;5.470;2022-12-07T06:12:11;101327.00;;;10.50
15079;BMP180;6932;51.438;5.470;2022-12-07T06:14:55;101334.00;;;10.50
15079;BMP180;6932;51.438;5.470;2022-12-07T06:17:21;101331.00;;;10.50
15079;BMP180;6932;51.438;5.470;2022-12-07T06:19:47;101338.00;;;10.50
15079;BMP180;6932;51.438;5.470;2022-12-07T06:22:13;101346.00;;;10.50
15079;BMP180;6932;51.438;5.470;2022-12-07T06:24:39;101340.00;;;10.40
15079;BMP180;6932;51.438;5.470;2022-12-07T06:27:05;101338.00;;;10.40
15079;BMP180;6932;51.438;5.470;2022-12-07T06:29:31;101338.00;;;10.40
15079;BMP180;6932;51.438;5.470;2022-12-07T06:31:57;101331.00;;;10.40
15079;BMP180;6932;51.438;5.470;2022-12-07T06:34:26;101337.00;;;10.40
15079;BMP180;6932;51.438;5.470;2022-12-07T06:36:53;101336.00;;;10.40
15079;BMP180;6932;51.438;5.470;2022-12-07T06:39:26;101347.00;;;10.40
15079;BMP180;6932;51.438;5.470;2022-12-07T06:41:52;101337.00;;;10.30
15079;BMP180;6932;51.438;5.470;2022-12-07T06:44:19;101335.00;;;10.30
15079;BMP180;6932;51.438;5.470;2022-12-07T06:46:44;101340.00;;;10.30
15079;BMP180;6932;51.438;5.470;2022-12-07T06:49:10;101341.00;;;10.30
15079;BMP180;6932;51.438;5.470;2022-12-07T06:51:36;101337.00;;;10.30
15079;BMP180;6932;51.438;5.470;2022-12-07T06:54:14;101342.00;;;10.20
15079;BMP180;6932;51.438;5.470;2022-12-07T06:56:40;101355.00;;;10.20
15079;BMP180;6932;51.438;5.470;2022-12-07T06:59:07;101347.00;;;10.20
15079;BMP180;6932;51.438;5.470;2022-12-07T07:01:35;101346.00;;;10.20
15079;BMP180;6932;51.438;5.470;2022-12-07T07:04:01;101356.00;;;10.20
15079;BMP180;6932;51.438;5.470;2022-12-07T07:06:27;101349.00;;;10.20
15079;BMP180;6932;51.438;5.470;2022-12-07T07:08:53;101342.00;;;10.20
15079;BMP180;6932;51.438;5.470;2022-12-07T07:11:19;101348.00;;;10.20
15079;BMP180;6932;51.438;5.470;2022-12-07T07:13:45;101356.00;;;10.20
15079;BMP180;6932;51.438;5.470;2022-12-07T07:16:11;101343.00;;;10.20
15079;BMP180;6932;51.438;5.470;2022-12-07T07:18:37;101337.00;;;10.20
15079;BMP180;6932;51.438;5.470;2022-12-07T07:21:03;101348.00;;;10.20
15079;BMP180;6932;51.438;5.470;2022-12-07T07:23:30;101349.00;;;10.20
15079;BMP180;6932;51.438;5.470;2022-12-07T07:25:56;101344.00;;;10.10
15079;BMP180;6932;51.438;5.470;2022-12-07T07:28:22;101351.00;;;10.10
15079;BMP180;6932;51.438;5.470;2022-12-07T07:30:48;101346.00;;;10.10
15079;BMP180;6932;51.438;5.470;2022-12-07T07:33:14;101342.00;;;10.10
15079;BMP180;6932;51.438;5.470;2022-12-07T07:35:40;101339.00;;;10.10
15079;BMP180;6932;51.438;5.470;2022-12-07T07:38:07;101342.00;;;10.10
15079;BMP180;6932;51.438;5.470;2022-12-07T07:40:33;101346.00;;;10.10
15079;BMP180;6932;51.438;5.470;2022-12-07T07:42:59;101341.00;;;10.10
15079;BMP180;6932;51.438;5.470;2022-12-07T07:45:27;101357.00;;;10.10
15079;BMP180;6932;51.438;5.470;2022-12-07T07:47:53;101363.00;;;10.10
15079;BMP180;6932;51.438;5.470;2022-12-07T07:50:19;101364.00;;;10.10
15079;BMP180;6932;51.438;5.470;2022-12-07T07:52:45;101352.00;;;10.10
15079;BMP180;6932;51.438;5.470;2022-12-07T07:55:12;101369.00;;;10.10
15079;BMP180;6932;51.438;5.470;2022-12-07T07:57:39;101368.00;;;10.10
15079;BMP180;6932;51.438;5.470;2022-12-07T08:00:10;101365.00;;;10.20
15079;BMP180;6932;51.438;5.470;2022-12-07T08:02:38;101363.00;;;10.20
15079;BMP180;6932;51.438;5.470;2022-12-07T08:05:04;101359.00;;;10.20
15079;BMP180;6932;51.438;5.470;2022-12-07T08:07:30;101361.00;;;10.20
15079;BMP180;6932;51.438;5.470;2022-12-07T08:09:56;101366.00;;;10.30
15079;BMP180;6932;51.438;5.470;2022-12-07T08:12:22;101364.00;;;10.30
15079;BMP180;6932;51.438;5.470;2022-12-07T08:14:48;101364.00;;;10.30
15079;BMP180;6932;51.438;5.470;2022-12-07T08:17:13;101359.00;;;10.40
15079;BMP180;6932;51.438;5.470;2022-12-07T08:19:39;101366.00;;;10.40
15079;BMP180;6932;51.438;5.470;2022-12-07T08:22:05;101366.00;;;10.40
15079;BMP180;6932;51.438;5.470;2022-12-07T08:24:34;101374.00;;;10.40
15079;BMP180;6932;51.438;5.470;2022-12-07T08:27:00;101376.00;;;10.40
15079;BMP180;6932;51.438;5.470;2022-12-07T08:29:25;101377.00;;;10.50
15079;BMP180;6932;51.438;5.470;2022-12-07T08:31:51;101374.00;;;10.40
15079;BMP180;6932;51.438;5.470;2022-12-07T08:34:17;101377.00;;;10.40
15079;BMP180;6932;51.438;5.470;2022-12-07T08:36:43;101383.00;;;10.40
15079;BMP180;6932;51.438;5.470;2022-12-07T08:39:09;101388.00;;;10.40
15079;BMP180;6932;51.438;5.470;2022-12-07T08:41:35;101391.00;;;10.40
15079;BMP180;6932;51.438;5.470;2022-12-07T08:44:01;101391.00;;;10.40
15079;BMP180;6932;51.438;5.470;2022-12-07T08:46:47;101384.00;;;10.40
15079;BMP180;6932;51.438;5.470;2022-12-07T08:49:24;101380.00;;;10.40
15079;BMP180;6932;51.438;5.470;2022-12-07T08:51:52;101380.00;;;10.40
15079;BMP180;6932;51.438;5.470;2022-12-07T08:54:19;101375.00;;;10.40
15079;BMP180;6932;51.438;5.470;2022-12-07T08:56:47;101376.00;;;10.40
15079;BMP180;6932;51.438;5.470;2022-12-07T08:59:15;101377.00;;;10.50
15079;BMP180;6932;51.438;5.470;2022-12-07T09:01:43;101379.00;;;10.50
15079;BMP180;6932;51.438;5.470;2022-12-07T09:04:09;101379.00;;;10.50
15079;BMP180;6932;51.438;5.470;2022-12-07T09:06:35;101385.00;;;10.60
15079;BMP180;6932;51.438;5.470;2022-12-07T09:09:02;101377.00;;;10.70
15079;BMP180;6932;51.438;5.470;2022-12-07T09:11:29;101375.00;;;10.80
15079;BMP180;6932;51.438;5.470;2022-12-07T09:13:55;101382.00;;;10.90
15079;BMP180;6932;51.438;5.470;2022-12-07T09:16:21;101380.00;;;10.90
15079;BMP180;6932;51.438;5.470;2022-12-07T09:18:47;101370.00;;;11.00
15079;BMP180;6932;51.438;5.470;2022-12-07T09:21:13;101383.00;;;11.00
15079;BMP180;6932;51.438;5.470;2022-12-07T09:23:41;101374.00;;;11.00
15079;BMP180;6932;51.438;5.470;2022-12-07T09:26:07;101374.00;;;11.00
15079;BMP180;6932;51.438;5.470;2022-12-07T09:28:32;101386.00;;;11.00
15079;BMP180;6932;51.438;5.470;2022-12-07T09:30:59;101381.00;;;11.10
15079;BMP180;6932;51.438;5.470;2022-12-07T09:33:25;101369.00;;;11.10
15079;BMP180;6932;51.438;5.470;2022-12-07T09:35:52;101371.00;;;11.10
15079;BMP180;6932;51.438;5.470;2022-12-07T09:38:19;101379.00;;;11.10
15079;BMP180;6932;51.438;5.470;2022-12-07T09:40:46;101372.00;;;11.10
15079;BMP180;6932;51.438;5.470;2022-12-07T09:43:23;101385.00;;;11.10
15079;BMP180;6932;51.438;5.470;2022-12-07T09:45:53;101363.00;;;11.10
15079;BMP180;6932;51.438;5.470;2022-12-07T09:48:31;101377.00;;;11.20
15079;BMP180;6932;51.438;5.470;2022-12-07T09:51:00;101377.00;;;11.20
15079;BMP180;6932;51.438;5.470;2022-12-07T09:53:32;101377.00;;;11.20
15079;BMP180;6932;51.438;5.470;2022-12-07T09:56:00;101377.00;;;11.20
15079;BMP180;6932;51.438;5.470;2022-12-07T09:58:30;101381.00;;;11.20
15079;BMP180;6932;51.438;5.470;2022-12-07T10:01:05;101377.00;;;11.20
15079;BMP180;6932;51.438;5.470;2022-12-07T10:03:40;101385.00;;;11.30
15079;BMP180;6932;51.438;5.470;2022-12-07T10:06:06;101374.00;;;11.30
15079;BMP180;6932;51.438;5.470;2022-12-07T10:08:33;101378.00;;;11.30
15079;BMP180;6932;51.438;5.470;2022-12-07T10:11:02;101366.00;;;11.40
15079;BMP180;6932;51.438;5.470;2022-12-07T10:13:47;101364.00;;;11.50
15079;BMP180;6932;51.438;5.470;2022-12-07T10:16:41;101366.00;;;11.60
15079;BMP180;6932;51.438;5.470;2022-12-07T10:19:30;101351.00;;;11.70
15079;BMP180;6932;51.438;5.470;2022-12-07T10:24:29;101350.00;;;12.00
15079;BMP180;6932;51.438;5.470;2022-12-07T10:26:56;101349.00;;;12.20
15079;BMP180;6932;51.438;5.470;2022-12-07T10:29:36;101342.00;;;12.30
15079;BMP180;6932;51.438;5.470;2022-12-07T10:32:33;101348.00;;;12.50
15079;BMP180;6932;51.438;5.470;2022-12-07T10:35:22;101342.00;;;12.60
15079;BMP180;6932;51.438;5.470;2022-12-07T10:37:50;101331.00;;;12.70
15079;BMP180;6932;51.438;5.470;2022-12-07T10:40:34;101326.00;;;12.90
15079;BMP180;6932;51.438;5.470;2022-12-07T10:51:37;101324.00;;;13.30
15079;BMP180;6932;51.438;5.470;2022-12-07T10:54:58;101314.00;;;13.40
15079;BMP180;6932;51.438;5.470;2022-12-07T11:00:25;101315.00;;;13.40
15079;BMP180;6932;51.438;5.470;2022-12-07T11:06:27;101301.00;;;13.40
15079;BMP180;6932;51.438;5.470;2022-12-07T11:12:20;101301.00;;;13.40
15079;BMP180;6932;51.438;5.470;2022-12-07T11:15:04;101289.00;;;13.50
15079;BMP180;6932;51.438;5.470;2022-12-07T11:17:59;101297.00;;;13.60
15079;BMP180;6932;51.438;5.470;2022-12-07T11:26:34;101282.00;;;13.70
15079;BMP180;6932;51.438;5.470;2022-12-07T11:31:54;101280.00;;;13.70
15079;BMP180;6932;51.438;5.470;2022-12-07T11:37:35;101279.00;;;13.60
15079;BMP180;6932;51.438;5.470;2022-12-07T11:40:35;101271.00;;;13.60
15079;BMP180;6932;51.438;5.470;2022-12-07T11:46:14;101271.00;;;13.50
15079;BMP180;6932;51.438;5.470;2022-12-07T11:49:10;101259.00;;;13.40
15079;BMP180;6932;51.438;5.470;2022-12-07T11:51:40;101259.00;;;13.40
15079;BMP180;6932;51.438;5.470;2022-12-07T11:54:27;101265.00;;;13.30
15079;BMP180;6932;51.438;5.470;2022-12-07T11:57:01;101264.00;;;13.30
15079;BMP180;6932;51.438;5.470;2022-12-07T11:59:36;101267.00;;;13.20
15079;BMP180;6932;51.438;5.470;2022-12-07T12:05:01;101260.00;;;13.20
15079;BMP180;6932;51.438;5.470;2022-12-07T12:07:31;101266.00;;;13.10
15079;BMP180;6932;51.438;5.470;2022-12-07T12:10:25;101259.00;;;13.10
15079;BMP180;6932;51.438;5.470;2022-12-07T12:22:19;101255.00;;;13.00
15079;BMP180;6932;51.438;5.470;2022-12-07T12:24:52;101248.00;;;12.90
15079;BMP180;6932;51.438;5.470;2022-12-07T12:27:27;101239.00;;;12.90
15079;BMP180;6932;51.438;5.470;2022-12-07T12:30:02;101239.00;;;12.90
15079;BMP180;6932;51.438;5.470;2022-12-07T12:32:44;101236.00;;;12.80
15079;BMP180;6932;51.438;5.470;2022-12-07T12:37:54;101224.00;;;12.80
15079;BMP180;6932;51.438;5.470;2022-12-07T12:45:32;101221.00;;;12.80
15079;BMP180;6932;51.438;5.470;2022-12-07T12:50:48;101211.00;;;12.80
15079;BMP180;6932;51.438;5.470;2022-12-07T12:53:24;101203.00;;;12.90
15079;BMP180;6932;51.438;5.470;2022-12-07T12:58:41;101222.00;;;13.00
15079;BMP180;6932;51.438;5.470;2022-12-07T13:04:02;101203.00;;;13.00
15079;BMP180;6932;51.438;5.470;2022-12-07T13:08:58;101197.00;;;13.10
15079;BMP180;6932;51.438;5.470;2022-12-07T13:11:42;101185.00;;;13.10
15079;BMP180;6932;51.438;5.470;2022-12-07T13:20:03;101184.00;;;13.10
15079;BMP180;6932;51.438;5.470;2022-12-07T13:27:59;101177.00;;;13.10
15079;BMP180;6932;51.438;5.470;2022-12-07T13:30:27;101176.00;;;13.10
15079;BMP180;6932;51.438;5.470;2022-12-07T13:32:58;101178.00;;;13.10
15079;BMP180;6932;51.438;5.470;2022-12-07T13:37:54;101174.00;;;13.00
15079;BMP180;6932;51.438;5.470;2022-12-07T13:40:23;101173.00;;;13.00
15079;BMP180;6932;51.438;5.470;2022-12-07T13:43:02;101172.00;;;13.00
15079;BMP180;6932;51.438;5.470;2022-12-07T13:45:33;101164.00;;;13.00
15079;BMP180;6932;51.438;5.470;2022-12-07T13:48:27;101167.00;;;12.90
15079;BMP180;6932;51.438;5.470;2022-12-07T13:50:58;101173.00;;;12.90
15079;BMP180;6932;51.438;5.470;2022-12-07T13:53:25;101166.00;;;12.90
15079;BMP180;6932;51.438;5.470;2022-12-07T13:55:57;101161.00;;;12.80
15079;BMP180;6932;51.438;5.470;2022-12-07T13:58:24;101162.00;;;12.80
15079;BMP180;6932;51.438;5.470;2022-12-07T14:00:51;101153.00;;;12.80
15079;BMP180;6932;51.438;5.470;2022-12-07T14:05:44;101159.00;;;12.80
15079;BMP180;6932;51.438;5.470;2022-12-07T14:10:56;101155.00;;;12.80
15079;BMP180;6932;51.438;5.470;2022-12-07T14:16:35;101148.00;;;12.80
15079;BMP180;6932;51.438;5.470;2022-12-07T14:19:39;101134.00;;;12.70
15079;BMP180;6932;51.438;5.470;2022-12-07T14:22:15;101135.00;;;12.70
15079;BMP180;6932;51.438;5.470;2022-12-07T14:24:44;101130.00;;;12.70
15079;BMP180;6932;51.438;5.470;2022-12-07T14:27:24;101132.00;;;12.70
15079;BMP180;6932;51.438;5.470;2022-12-07T14:29:56;101139.00;;;12.70
15079;BMP180;6932;51.438;5.470;2022-12-07T14:32:28;101132.00;;;12.70
15079;BMP180;6932;51.438;5.470;2022-12-07T14:35:10;101133.00;;;12.70
15079;BMP180;6932;51.438;5.470;2022-12-07T14:37:38;101121.00;;;12.70
15079;BMP180;6932;51.438;5.470;2022-12-07T14:40:05;101123.00;;;12.70
15079;BMP180;6932;51.438;5.470;2022-12-07T14:42:33;101123.00;;;12.70
15079;BMP180;6932;51.438;5.470;2022-12-07T14:44:59;101122.00;;;12.70
15079;BMP180;6932;51.438;5.470;2022-12-07T14:47:26;101113.00;;;12.70
15079;BMP180;6932;51.438;5.470;2022-12-07T14:49:52;101114.00;;;12.70
15079;BMP180;6932;51.438;5.470;2022-12-07T14:52:26;101116.00;;;12.70
15079;BMP180;6932;51.438;5.470;2022-12-07T14:54:53;101117.00;;;12.70
15079;BMP180;6932;51.438;5.470;2022-12-07T14:57:19;101110.00;;;12.70
15079;BMP180;6932;51.438;5.470;2022-12-07T14:59:45;101109.00;;;12.60
15079;BMP180;6932;51.438;5.470;2022-12-07T15:02:13;101108.00;;;12.60
15079;BMP180;6932;51.438;5.470;2022-12-07T15:04:39;101105.00;;;12.60
15079;BMP180;6932;51.438;5.470;2022-12-07T15:07:14;101123.00;;;12.60
15079;BMP180;6932;51.438;5.470;2022-12-07T15:09:40;101120.00;;;12.50
15079;BMP180;6932;51.438;5.470;2022-12-07T15:12:06;101107.00;;;12.50
15079;BMP180;6932;51.438;5.470;2022-12-07T15:14:32;101101.00;;;12.50
15079;BMP180;6932;51.438;5.470;2022-12-07T15:16:58;101106.00;;;12.40
15079;BMP180;6932;51.438;5.470;2022-12-07T15:19:25;101105.00;;;12.40
15079;BMP180;6932;51.438;5.470;2022-12-07T15:21:52;101104.00;;;12.40
15079;BMP180;6932;51.438;5.470;2022-12-07T15:24:19;101106.00;;;12.30
15079;BMP180;6932;51.438;5.470;2022-12-07T15:26:46;101107.00;;;12.30
15079;BMP180;6932;51.438;5.470;2022-12-07T15:29:12;101104.00;;;12.30
15079;BMP180;6932;51.438;5.470;2022-12-07T15:31:40;101104.00;;;12.30
15079;BMP180;6932;51.438;5.470;2022-12-07T15:34:05;101095.00;;;12.20
15079;BMP180;6932;51.438;5.470;2022-12-07T15:36:33;101103.00;;;12.20
15079;BMP180;6932;51.438;5.470;2022-12-07T15:39:00;101106.00;;;12.20
15079;BMP180;6932;51.438;5.470;2022-12-07T15:41:27;101095.00;;;12.20
15079;BMP180;6932;51.438;5.470;2022-12-07T15:43:53;101101.00;;;12.10
15079;BMP180;6932;51.438;5.470;2022-12-07T15:46:40;101103.00;;;12.10
15079;BMP180;6932;51.438;5.470;2022-12-07T15:49:17;101094.00;;;12.10
15079;BMP180;6932;51.438;5.470;2022-12-07T15:51:45;101106.00;;;12.10
15079;BMP180;6932;51.438;5.470;2022-12-07T15:54:30;101106.00;;;12.00
15079;BMP180;6932;51.438;5.470;2022-12-07T15:56:57;101108.00;;;12.00
15079;BMP180;6932;51.438;5.470;2022-12-07T15:59:26;101095.00;;;12.00
15079;BMP180;6932;51.438;5.470;2022-12-07T16:01:52;101101.00;;;12.00
15079;BMP180;6932;51.438;5.470;2022-12-07T16:04:18;101095.00;;;12.00
15079;BMP180;6932;51.438;5.470;2022-12-07T16:06:44;101086.00;;;11.90
15079;BMP180;6932;51.438;5.470;2022-12-07T16:09:10;101091.00;;;11.90
15079;BMP180;6932;51.438;5.470;2022-12-07T16:11:36;101088.00;;;11.90
15079;BMP180;6932;51.438;5.470;2022-12-07T16:14:02;101087.00;;;11.90
15079;BMP180;6932;51.438;5.470;2022-12-07T16:16:28;101074.00;;;11.90
15079;BMP180;6932;51.438;5.470;2022-12-07T16:18:54;101077.00;;;11.90
15079;BMP180;6932;51.438;5.470;2022-12-07T16:21:21;101082.00;;;11.90